Time;durP1;ratioP1;P1;durP2;ratioP2;P2;SDS_P1;SDS_P2;PMS_P1;PMS_P2;Temp;Humidity;BMP_temperature;BMP_pressure;BME280_temperature;BME280_humidity;BME280_pressure;Samples;Min_cycle;Max_cycle;Signal;HPM_P1;HPM_P2
2022/04/21 00:09:05;;;;;;;7.93;5.30;;;;;;;22.11;40.85;100031.66;20457878;28;97071;-78
2022/04/21 00:19:06;;;;;;;10.20;6.32;;;;;;;22.07;40.75;100023.16;20459728;28;97063;-78
2022/04/21 00:29:06;;;;;;;10.50;6.17;;;;;;;22.06;41.15;100022.31;20450140;28;101375;-78
2022/04/21 00:39:07;;;;;;;9.68;5.68;;;;;;;22.02;40.93;100023.56;20451805;28;98661;-78
2022/04/21 00:49:08;;;;;;;9.48;5.70;;;;;;;22.00;41.09;100028.13;20455375;28;97170;-77
2022/04/21 00:59:11;;;;;;;8.27;5.68;;;;;;;21.99;40.83;100030.91;20452130;28;98240;-78
2022/04/21 01:09:12;;;;;;;8.50;5.93;;;;;;;21.97;41.10;100017.88;20449226;28;97950;-77
2022/04/21 01:19:13;;;;;;;8.60;5.75;;;;;;;21.94;41.05;100012.84;20451641;28;97124;-76
2022/04/21 01:29:14;;;;;;;9.40;6.00;;;;;;;21.94;41.06;100018.13;20463568;28;99477;-77
2022/04/21 01:49:34;;;;;;;8.40;6.03;;;;;;;21.88;41.30;100008.94;20396988;28;98445;-77
2022/04/21 01:59:34;;;;;;;8.02;5.45;;;;;;;21.87;41.29;100007.28;20383504;28;98315;-76
2022/04/21 02:09:35;;;;;;;9.20;5.70;;;;;;;21.86;41.18;99994.22;20378072;28;97662;-77
2022/04/21 02:19:36;;;;;;;8.10;5.78;;;;;;;21.84;41.13;99991.72;20379689;28;97135;-76
2022/04/21 02:29:36;;;;;;;7.40;5.50;;;;;;;21.83;40.95;99989.22;20379853;28;98080;-76
2022/04/21 02:39:37;;;;;;;8.57;5.63;;;;;;;21.81;40.98;100001.69;20388139;28;100753;-77
2022/04/21 02:49:38;;;;;;;7.57;5.50;;;;;;;21.80;41.36;99997.38;20437952;28;97046;-77
2022/04/21 02:59:40;;;;;;;8.57;5.53;;;;;;;21.74;41.39;99994.31;20464732;28;97254;-77
2022/04/21 03:09:41;;;;;;;7.40;5.53;;;;;;;21.74;41.84;99990.88;20461246;28;98212;-77
2022/04/21 03:19:41;;;;;;;7.10;5.13;;;;;;;21.71;41.59;99985.84;20459426;28;96749;-77
2022/04/21 03:29:42;;;;;;;8.30;5.65;;;;;;;21.69;41.42;99993.03;20456672;28;100210;-77
2022/04/21 03:39:43;;;;;;;8.70;5.97;;;;;;;21.65;41.65;99992.47;20451605;28;97242;-77
2022/04/21 03:49:43;;;;;;;9.43;5.55;;;;;;;21.65;41.41;99989.81;20460793;28;99159;-78
2022/04/21 03:59:44;;;;;;;7.50;5.53;;;;;;;21.64;41.24;100000.50;20453625;28;100547;-77
2022/04/21 04:20:05;;;;;;;9.38;5.88;;;;;;;21.71;42.54;100006.91;20405313;28;99570;-76
2022/04/21 04:30:08;;;;;;;11.20;5.80;;;;;;;21.79;43.02;100008.88;20351502;28;99166;-80
2022/04/21 04:40:14;;;;;;;6.55;4.90;;;;;;;21.86;42.89;100010.88;20367294;28;98158;-77
2022/04/21 04:50:14;;;;;;;20.60;5.60;;;;;;;21.95;43.33;100016.31;20353233;28;99065;-84
2022/04/21 05:00:15;;;;;;;13.43;7.78;;;;;;;21.95;42.29;100024.22;20370656;28;98190;-77
2022/04/21 05:10:18;;;;;;;12.13;6.50;;;;;;;22.01;42.85;100034.25;20391251;28;98053;-77
2022/04/21 05:20:19;;;;;;;14.55;7.47;;;;;;;21.96;41.93;100025.88;20475180;28;97370;-81
2022/04/21 05:40:39;;;;;;;33.72;10.90;;;;;;;22.05;41.90;100039.09;20471784;28;98082;-81
2022/04/21 05:50:44;;;;;;;34.30;9.93;;;;;;;22.13;42.13;100022.63;20475721;28;97477;-80
2022/04/21 06:00:44;;;;;;;35.45;10.95;;;;;;;22.11;38.53;100026.38;20471374;28;96939;-80
2022/04/21 06:10:45;;;;;;;23.95;9.75;;;;;;;22.18;41.04;100025.69;20477232;28;97479;-81
2022/04/21 06:20:46;;;;;;;35.92;9.07;;;;;;;22.22;41.58;100027.09;20491549;28;97260;-80
2022/04/21 06:30:47;;;;;;;25.85;8.90;;;;;;;22.26;41.73;100011.00;20458982;28;97738;-79
2022/04/21 06:40:48;;;;;;;21.98;8.02;;;;;;;22.29;42.04;100018.63;20474668;28;96955;-80
2022/04/21 06:50:49;;;;;;;16.25;8.38;;;;;;;22.32;41.82;100015.75;20477248;28;96974;-81
2022/04/21 07:00:50;;;;;;;14.50;7.53;;;;;;;22.34;42.16;100005.91;20477726;28;97404;-81
2022/04/21 07:10:51;;;;;;;15.02;7.10;;;;;;;22.35;42.06;100004.91;20477331;28;96863;-80
2022/04/21 07:20:51;;;;;;;18.92;7.65;;;;;;;22.35;41.20;100007.53;20483126;28;98126;-79
2022/04/21 07:30:52;;;;;;;11.73;7.40;;;;;;;22.38;42.04;100008.13;20472507;28;97866;-80
2022/04/21 07:40:56;;;;;;;11.57;6.65;;;;;;;22.42;42.30;99997.31;20478737;28;97480;-80
2022/04/21 07:50:56;;;;;;;12.95;6.90;;;;;;;22.44;42.45;99998.84;20473669;28;97490;-80
2022/04/21 08:00:57;;;;;;;11.52;6.38;;;;;;;22.48;42.76;99996.78;20468289;28;97562;-80
2022/04/21 08:10:59;;;;;;;10.25;6.20;;;;;;;22.49;43.08;99990.53;20484418;28;97480;-80
2022/04/21 08:21:00;;;;;;;7.88;5.88;;;;;;;22.50;43.44;99990.38;20473712;28;96791;-80
2022/04/21 08:41:26;;;;;;;10.18;6.22;;;;;;;22.52;43.05;99987.59;20473354;28;97023;-80
2022/04/21 08:51:28;;;;;;;9.85;5.70;;;;;;;22.52;43.65;99983.19;20477234;28;99982;-81
2022/04/21 09:01:28;;;;;;;9.65;5.15;;;;;;;22.42;41.02;99992.88;20467061;28;97056;-82
2022/04/21 09:11:29;;;;;;;7.30;5.13;;;;;;;22.47;41.47;99988.03;20456017;28;97475;-80
2022/04/21 09:21:38;;;;;;;12.10;5.90;;;;;;;22.52;41.85;99998.16;20464037;28;97197;-78
2022/04/21 09:31:42;;;;;;;8.55;4.90;;;;;;;22.52;41.56;99984.97;20465247;28;97585;-80
2022/04/21 09:41:44;;;;;;;15.63;5.55;;;;;;;22.60;42.20;99995.66;20454245;28;96926;-79
2022/04/21 09:51:45;;;;;;;9.23;5.30;;;;;;;22.66;42.65;99983.75;20473394;28;97935;-76
2022/04/21 10:01:46;;;;;;;7.43;4.88;;;;;;;22.77;42.73;99980.13;20467371;28;97178;-77
2022/04/21 10:11:46;;;;;;;8.52;4.90;;;;;;;22.84;42.44;99963.59;20466041;28;98228;-77
2022/04/21 10:21:52;;;;;;;8.38;5.00;;;;;;;22.95;42.30;99956.47;20464537;28;97922;-78
2022/04/21 10:32:03;;;;;;;7.75;4.63;;;;;;;23.01;42.07;99956.75;20465872;28;97806;-77
2022/04/21 10:42:17;;;;;;;6.47;4.50;;;;;;;23.07;42.25;99938.69;20455799;28;97535;-78
2022/04/21 11:02:43;;;;;;;6.50;4.22;;;;;;;23.28;42.00;99914.78;20455049;28;97404;-76
2022/04/21 11:12:49;;;;;;;5.60;4.00;;;;;;;23.38;41.66;99917.38;20458970;28;100547;-77
2022/04/21 11:22:49;;;;;;;7.68;4.18;;;;;;;23.51;42.49;99915.22;20460237;28;96906;-75
2022/04/21 11:32:52;;;;;;;9.43;4.93;;;;;;;23.65;42.14;99900.69;20463052;28;97195;-78
2022/04/21 11:42:54;;;;;;;7.25;3.50;;;;;;;23.75;42.07;99901.47;20455962;28;103667;-74
2022/04/21 11:52:57;;;;;;;7.93;3.92;;;;;;;23.82;42.39;99897.25;20469586;28;97428;-74
2022/04/21 12:13:21;;;;;;;5.30;3.55;;;;;;;24.02;42.67;99878.63;20426330;28;101481;-74
2022/04/21 12:23:25;;;;;;;8.50;3.75;;;;;;;24.13;43.15;99869.66;20439503;28;97285;-75
2022/04/21 12:33:25;;;;;;;8.43;4.07;;;;;;;23.98;34.45;99856.94;20432370;28;97779;-75
2022/04/21 12:43:30;;;;;;;10.75;3.60;;;;;;;24.04;37.41;99865.28;20434374;28;98933;-77
2022/04/21 12:53:32;;;;;;;6.28;3.50;;;;;;;24.07;37.62;99859.69;20447758;28;97222;-75
2022/04/21 13:03:33;;;;;;;5.00;3.63;;;;;;;24.11;35.66;99855.78;20439394;28;97108;-76
2022/04/21 13:13:34;;;;;;;4.88;3.53;;;;;;;24.14;31.98;99855.47;20442749;28;97696;-77
2022/04/21 13:23:35;;;;;;;6.47;3.10;;;;;;;24.13;34.34;99857.28;20427183;28;97990;-77
2022/04/21 13:33:36;;;;;;;5.78;2.70;;;;;;;24.20;34.26;99854.03;20447141;28;98551;-76
2022/04/21 13:43:36;;;;;;;4.00;3.20;;;;;;;24.10;30.04;99852.28;20460868;28;99183;-76
2022/04/21 13:53:37;;;;;;;5.93;2.95;;;;;;;24.16;31.45;99845.56;20443316;28;99847;-75
2022/04/21 14:03:37;;;;;;;3.63;3.00;;;;;;;24.08;30.57;99856.06;20445502;28;98224;-75
2022/04/21 14:13:38;;;;;;;4.70;3.00;;;;;;;24.12;31.17;99841.53;20447814;28;96896;-75
2022/04/21 14:23:39;;;;;;;3.90;3.30;;;;;;;24.10;29.12;99831.13;20451645;28;99507;-76
2022/04/21 14:33:41;;;;;;;5.78;3.20;;;;;;;24.18;29.66;99832.19;20428040;28;97544;-78
2022/04/21 14:54:01;;;;;;;8.73;2.92;;;;;;;24.26;30.28;99837.53;20458006;28;97048;-78
2022/04/21 15:04:04;;;;;;;7.43;2.63;;;;;;;24.30;29.01;99839.75;20465389;28;96898;-78
2022/04/21 15:14:04;;;;;;;2.95;2.58;;;;;;;24.42;27.44;99821.78;20454135;28;97856;-77
2022/04/21 15:24:06;;;;;;;4.35;2.67;;;;;;;24.69;27.12;99809.44;20449834;28;98951;-78
2022/04/21 15:34:06;;;;;;;2.92;2.50;;;;;;;24.97;25.79;99803.97;20455707;28;97643;-78
2022/04/21 15:44:08;;;;;;;3.90;2.47;;;;;;;25.36;26.70;99792.03;20434046;28;97116;-77
2022/04/21 16:04:28;;;;;;;8.32;2.53;;;;;;;25.47;27.05;99789.09;20469013;28;100580;-75
2022/04/21 16:14:28;;;;;;;12.73;2.75;;;;;;;25.40;26.30;99782.78;20448379;28;97619;-76
2022/04/21 16:24:30;;;;;;;6.15;2.70;;;;;;;25.15;26.11;99793.28;20428980;28;100550;-78
2022/04/21 16:34:31;;;;;;;7.10;2.87;;;;;;;24.86;26.86;99775.94;20446364;28;97923;-81
2022/04/21 16:44:31;;;;;;;4.90;2.53;;;;;;;24.76;27.09;99788.47;20429767;28;98287;-77
2022/04/21 16:54:32;;;;;;;4.40;2.17;;;;;;;24.64;29.52;99782.56;20455037;28;97312;-77
2022/04/21 17:04:33;;;;;;;8.43;2.30;;;;;;;24.52;32.71;99781.16;20443718;28;97152;-78
2022/04/21 17:14:34;;;;;;;4.10;1.90;;;;;;;24.37;33.38;99776.44;20452381;28;97611;-75
2022/04/21 17:24:36;;;;;;;7.63;2.20;;;;;;;24.36;33.99;99782.72;20461428;28;98472;-78
2022/04/21 17:34:39;;;;;;;10.07;2.55;;;;;;;24.34;34.12;99786.50;20438346;28;100362;-77
2022/04/21 17:44:39;;;;;;;4.68;2.25;;;;;;;24.29;34.55;99798.38;20411241;28;99990;-77
2022/04/21 17:54:40;;;;;;;9.50;2.72;;;;;;;24.29;35.19;99816.91;20440405;28;97042;-79
2022/04/21 18:04:41;;;;;;;9.75;3.00;;;;;;;24.27;35.99;99818.88;20454512;28;98488;-78
2022/04/21 18:14:45;;;;;;;8.18;2.95;;;;;;;24.21;36.47;99814.19;20432876;28;98275;-78
2022/04/21 18:24:46;;;;;;;8.60;2.88;;;;;;;24.13;37.14;99822.03;20438633;28;98007;-77
2022/04/21 18:34:48;;;;;;;6.20;2.75;;;;;;;24.07;36.90;99834.09;20443824;28;98338;-77
2022/04/21 18:44:50;;;;;;;7.53;3.30;;;;;;;23.90;36.13;99829.56;20424790;28;97241;-77
2022/04/21 18:54:52;;;;;;;7.70;2.50;;;;;;;23.81;36.41;99831.31;20433098;28;97698;-78
2022/04/21 19:04:53;;;;;;;5.97;3.27;;;;;;;23.73;36.65;99833.84;20424486;28;101109;-78
2022/04/21 19:14:53;;;;;;;6.78;3.05;;;;;;;23.73;36.83;99836.50;20447536;28;97788;-80
2022/04/21 19:24:54;;;;;;;4.00;2.60;;;;;;;23.65;36.83;99831.97;20455309;28;98183;-79
2022/04/21 19:34:54;;;;;;;6.25;3.13;;;;;;;23.59;37.25;99819.34;20372474;28;97207;-79
2022/04/21 19:44:57;;;;;;;5.30;2.72;;;;;;;23.53;37.32;99819.94;20367837;28;101589;-80
2022/04/21 19:54:59;;;;;;;4.72;2.72;;;;;;;23.48;37.62;99813.28;20355653;28;97694;-79
2022/04/21 20:05:00;;;;;;;4.78;2.90;;;;;;;23.46;37.76;99807.34;20379065;28;96823;-80
2022/04/21 20:15:02;;;;;;;3.58;2.78;;;;;;;23.41;37.93;99809.59;20363190;28;101325;-79
2022/04/21 20:35:22;;;;;;;5.65;2.75;;;;;;;23.33;38.18;99796.28;20379879;28;97105;-80
2022/04/21 20:45:24;;;;;;;7.10;3.00;;;;;;;23.27;38.36;99802.16;20378050;28;97062;-80
2022/04/21 20:55:24;;;;;;;5.87;2.80;;;;;;;23.28;38.73;99802.00;20364476;28;98178;-79
2022/04/21 21:05:25;;;;;;;3.97;2.65;;;;;;;23.29;39.51;99806.31;20384605;28;97714;-81
2022/04/21 21:15:25;;;;;;;4.25;2.58;;;;;;;23.28;39.54;99795.91;20448441;28;100201;-80
2022/04/21 21:25:26;;;;;;;6.13;2.97;;;;;;;23.25;39.72;99793.53;20439467;28;98267;-80
2022/04/21 21:35:27;;;;;;;3.95;2.78;;;;;;;23.24;39.62;99805.06;20437550;28;98004;-80
2022/04/21 21:45:27;;;;;;;3.25;2.60;;;;;;;23.17;39.64;99794.28;20446768;28;97705;-80
2022/04/21 21:55:30;;;;;;;5.05;2.88;;;;;;;23.15;39.98;99788.28;20453070;28;99845;-80
2022/04/21 22:05:31;;;;;;;;;;;;;;;23.13;40.16;99793.72;20445181;28;97566;-80
2022/04/21 22:15:32;;;;;;;4.15;2.72;;;;;;;23.09;40.13;99780.94;20459811;28;97019;-81
2022/04/21 22:25:34;;;;;;;4.30;3.03;;;;;;;23.07;40.38;99789.00;20462271;28;97062;-81
2022/04/21 22:35:35;;;;;;;3.57;3.07;;;;;;;23.06;40.03;99782.06;20450994;28;97739;-80
2022/04/21 22:45:35;;;;;;;4.50;3.10;;;;;;;23.03;40.39;99777.06;20456053;28;98141;-80
2022/04/21 22:55:36;;;;;;;4.15;2.95;;;;;;;23.02;40.62;99770.09;20437167;28;101332;-80
2022/04/21 23:05:37;;;;;;;4.45;3.25;;;;;;;22.99;40.37;99765.97;20453492;28;98491;-80
2022/04/21 23:15:38;;;;;;;5.30;3.53;;;;;;;22.97;40.41;99753.88;20441451;28;97097;-80
2022/04/21 23:25:40;;;;;;;4.03;2.97;;;;;;;22.95;40.56;99755.81;20388215;28;98553;-80
2022/04/21 23:35:41;;;;;;;5.00;3.40;;;;;;;22.92;40.71;99756.94;20370682;28;98147;-79
2022/04/21 23:45:44;;;;;;;3.97;3.03;;;;;;;22.91;40.57;99741.25;20358882;28;97611;-79
2022/04/21 23:55:45;;;;;;;4.43;3.40;;;;;;;22.86;40.95;99742.53;20347747;28;99748;-79
